Terminal Aerodrome Forecast
Issued by NWS

Home | Current Version | Previous Version | Text Only | Print | Product List | Glossary On
Versions: 1 2 3 4 5 6 7 8 9 10 11 12 13
000
FTUS42 KMLB 230500
TAFISM
TAF
KISM 230522Z 2306/2406 01005KT P6SM SCT250
     FM231400 05010KT P6SM SCT250
     FM240000 02005KT P6SM FEW250
      AMD NOT SKED 2306/2311=

USA.gov is the U.S. government's official web portal to all federal, state and local government web resources and services.